createdAt,value
2017-07-24T00:00:33.545Z,1.47
2017-07-24T00:03:01.880Z,1.77
2017-07-24T00:05:30.195Z,1.47
2017-07-24T00:07:58.502Z,1.77
2017-07-24T00:10:26.845Z,2.00
2017-07-24T00:12:55.144Z,1.63
2017-07-24T00:15:23.448Z,1.27
2017-07-24T00:17:51.774Z,1.60
2017-07-24T00:20:20.084Z,1.40
2017-07-24T00:22:48.404Z,2.00
2017-07-24T00:25:16.712Z,1.20
2017-07-24T00:27:45.042Z,1.43
2017-07-24T00:30:13.349Z,1.83
2017-07-24T00:32:41.670Z,1.90
2017-07-24T00:35:09.962Z,1.97
2017-07-24T00:37:38.299Z,1.90
2017-07-24T00:40:07.256Z,1.73
2017-07-24T00:42:35.586Z,1.83
2017-07-24T00:45:03.889Z,1.43
2017-07-24T00:47:32.221Z,1.43
2017-07-24T00:50:00.532Z,1.63
2017-07-24T00:52:28.833Z,1.50
2017-07-24T00:54:57.171Z,1.53
2017-07-24T00:57:25.476Z,1.57
2017-07-24T00:59:53.801Z,1.90
2017-07-24T01:02:22.108Z,1.50
2017-07-24T01:04:50.440Z,1.53
2017-07-24T01:07:18.740Z,1.87
2017-07-24T01:09:47.072Z,1.50
2017-07-24T01:12:15.387Z,1.80
2017-07-24T01:14:43.754Z,2.00
2017-07-24T01:17:12.061Z,1.60
2017-07-24T01:19:40.383Z,1.20
2017-07-24T01:22:08.694Z,1.87
2017-07-24T01:24:37.026Z,1.80
2017-07-24T01:27:05.328Z,1.70
2017-07-24T01:29:33.685Z,1.60
2017-07-24T01:32:02.005Z,1.50
2017-07-24T01:34:30.300Z,1.67
2017-07-24T01:36:58.633Z,2.00
2017-07-24T01:39:26.938Z,1.90
2017-07-24T01:41:55.275Z,1.53
2017-07-24T01:44:23.576Z,1.73
2017-07-24T01:46:51.901Z,1.90
2017-07-24T01:49:20.202Z,1.97
2017-07-24T01:51:48.525Z,2.23
2017-07-24T01:54:18.260Z,2.00
2017-07-24T01:56:46.614Z,1.57
2017-07-24T01:59:14.926Z,2.00
2017-07-24T02:01:43.229Z,1.97
2017-07-24T02:04:11.566Z,2.00
2017-07-24T02:06:39.872Z,2.17
2017-07-24T02:09:08.198Z,2.27
2017-07-24T02:11:36.495Z,3.10
2017-07-24T02:14:04.892Z,2.17
2017-07-24T02:16:33.319Z,2.13
2017-07-24T02:19:01.645Z,2.33
2017-07-24T02:21:29.942Z,2.30
2017-07-24T02:23:58.429Z,2.17
2017-07-24T02:26:26.737Z,1.80
2017-07-24T02:28:55.049Z,2.13
2017-07-24T02:31:23.401Z,2.30
2017-07-24T02:33:51.731Z,1.90
2017-07-24T02:36:20.065Z,2.43
2017-07-24T02:38:48.398Z,2.10
2017-07-24T02:41:16.741Z,2.17
2017-07-24T02:43:45.062Z,2.67
2017-07-24T02:46:13.402Z,1.77
2017-07-24T02:48:41.705Z,2.20
2017-07-24T02:51:10.041Z,2.23
2017-07-24T02:53:38.351Z,2.00
2017-07-24T02:56:06.660Z,2.10
2017-07-24T02:58:34.991Z,2.00
2017-07-24T03:01:03.316Z,2.00
2017-07-24T03:03:31.661Z,2.30
2017-07-24T03:05:59.967Z,1.80
2017-07-24T03:08:28.299Z,2.40
2017-07-24T03:10:56.610Z,1.63
2017-07-24T03:13:24.924Z,2.53
2017-07-24T03:15:53.236Z,2.73
2017-07-24T03:18:21.569Z,2.40
2017-07-24T03:20:49.874Z,2.50
2017-07-24T03:23:18.222Z,2.50
2017-07-24T03:25:46.549Z,1.93
2017-07-24T03:28:14.857Z,2.43
2017-07-24T03:30:43.375Z,2.03
2017-07-24T03:33:11.677Z,2.30
2017-07-24T03:35:40.011Z,2.40
2017-07-24T03:38:08.308Z,2.20
2017-07-24T03:40:36.640Z,2.90
2017-07-24T03:43:04.952Z,2.50
2017-07-24T03:45:33.279Z,2.00
2017-07-24T03:48:01.578Z,2.27
2017-07-24T03:50:29.900Z,2.17
2017-07-24T03:52:58.213Z,3.67
2017-07-24T03:55:26.557Z,2.00
2017-07-24T03:57:54.856Z,2.10
2017-07-24T04:00:23.177Z,1.67
2017-07-24T04:02:51.513Z,1.80
2017-07-24T04:05:42.902Z,2.30
2017-07-24T04:08:11.228Z,2.00
2017-07-24T04:10:39.543Z,2.33
2017-07-24T04:13:07.865Z,2.23
2017-07-24T04:15:36.184Z,2.60
2017-07-24T04:18:04.505Z,2.33
2017-07-24T04:20:32.810Z,2.27
2017-07-24T04:23:01.152Z,1.90
2017-07-24T04:25:29.465Z,2.90
2017-07-24T04:27:57.791Z,2.30
2017-07-24T04:30:26.118Z,2.30
2017-07-24T04:32:54.453Z,2.37
2017-07-24T04:35:22.760Z,2.10
2017-07-24T04:37:51.101Z,2.20
2017-07-24T04:40:19.405Z,1.77
2017-07-24T04:42:47.699Z,1.77
2017-07-24T04:45:16.039Z,1.90
2017-07-24T04:47:44.345Z,1.80
2017-07-24T04:50:12.682Z,1.93
2017-07-24T04:52:40.986Z,1.90
2017-07-24T04:55:09.322Z,2.07
2017-07-24T04:57:37.642Z,1.93
2017-07-24T05:00:05.965Z,2.33
2017-07-24T05:02:34.284Z,1.97
2017-07-24T05:05:02.628Z,2.70
2017-07-24T05:07:30.933Z,2.20
2017-07-24T05:09:59.264Z,2.97
2017-07-24T05:12:27.578Z,2.23
2017-07-24T05:14:55.897Z,2.57
2017-07-24T05:17:24.230Z,2.20
2017-07-24T05:19:52.531Z,2.50
2017-07-24T05:22:20.866Z,2.70
2017-07-24T05:24:49.181Z,2.30
2017-07-24T05:27:17.509Z,2.57
2017-07-24T05:29:45.825Z,2.43
2017-07-24T05:32:14.165Z,3.07
2017-07-24T05:34:42.488Z,2.87
2017-07-24T05:37:10.823Z,2.10
2017-07-24T05:39:39.138Z,2.87
2017-07-24T05:42:07.473Z,1.70
2017-07-24T05:44:35.780Z,2.60
2017-07-24T05:47:04.108Z,2.67
2017-07-24T05:49:32.439Z,2.17
2017-07-24T05:52:00.761Z,2.17
2017-07-24T05:54:29.065Z,3.10
2017-07-24T05:56:57.364Z,1.93
2017-07-24T05:59:25.701Z,2.37
2017-07-24T06:01:54.003Z,2.23
2017-07-24T06:04:22.327Z,2.00
2017-07-24T06:06:50.636Z,2.07
2017-07-24T06:09:18.967Z,1.87
2017-07-24T06:11:47.275Z,2.03
2017-07-24T06:14:15.604Z,2.17
2017-07-24T06:16:43.940Z,2.53
2017-07-24T06:19:12.285Z,1.50
2017-07-24T06:21:40.593Z,1.77
2017-07-24T06:24:08.993Z,2.33
2017-07-24T06:26:37.301Z,3.33
2017-07-24T06:29:05.604Z,2.03
2017-07-24T06:31:33.943Z,1.60
2017-07-24T06:34:02.259Z,1.60
2017-07-24T06:36:30.603Z,1.70
2017-07-24T06:38:58.911Z,1.83
2017-07-24T06:41:27.241Z,1.97
2017-07-24T06:43:55.560Z,2.00
2017-07-24T06:46:23.900Z,1.60
2017-07-24T06:48:52.197Z,1.90
2017-07-24T06:51:20.524Z,1.60
2017-07-24T06:53:48.871Z,2.00
2017-07-24T06:56:17.208Z,1.90
2017-07-24T06:58:45.516Z,2.10
2017-07-24T07:01:13.837Z,1.80
2017-07-24T07:03:42.168Z,2.80
2017-07-24T07:06:10.499Z,2.40
2017-07-24T07:08:38.889Z,2.10
2017-07-24T07:11:07.213Z,1.80
2017-07-24T07:13:35.557Z,2.17
2017-07-24T07:16:03.882Z,2.03
2017-07-24T07:18:32.208Z,1.77
2017-07-24T07:21:00.514Z,2.10
2017-07-24T07:23:28.933Z,1.70
2017-07-24T07:25:57.248Z,2.17
2017-07-24T07:28:25.603Z,1.90
2017-07-24T07:30:54.127Z,2.87
2017-07-24T07:33:22.369Z,2.03
2017-07-24T07:35:50.698Z,2.30
2017-07-24T07:38:19.006Z,2.20
2017-07-24T07:40:47.346Z,3.33
2017-07-24T07:43:15.674Z,2.67
2017-07-24T07:45:44.245Z,2.70
2017-07-24T07:48:12.554Z,2.40
2017-07-24T07:50:40.893Z,2.23
2017-07-24T07:53:09.199Z,2.27
2017-07-24T07:55:37.536Z,2.20
2017-07-24T07:58:05.856Z,2.20
2017-07-24T08:00:34.169Z,2.30
2017-07-24T08:03:02.509Z,2.53
2017-07-24T08:05:30.826Z,2.07
2017-07-24T08:07:59.162Z,2.13
2017-07-24T08:10:27.473Z,2.40
2017-07-24T08:12:55.805Z,1.90
2017-07-24T08:15:24.113Z,2.80
2017-07-24T08:17:52.437Z,1.90
2017-07-24T08:20:20.749Z,2.27
2017-07-24T08:22:49.086Z,1.93
2017-07-24T08:25:17.412Z,2.03
2017-07-24T08:27:45.719Z,1.80
2017-07-24T08:30:14.049Z,1.63
2017-07-24T08:32:42.353Z,2.53
2017-07-24T08:35:10.697Z,2.03
2017-07-24T08:37:39.014Z,2.17
2017-07-24T08:40:07.345Z,2.13
2017-07-24T08:42:35.661Z,2.90
2017-07-24T08:45:03.993Z,2.10
2017-07-24T08:47:32.310Z,2.67
2017-07-24T08:50:00.647Z,2.43
2017-07-24T08:52:28.966Z,2.90
2017-07-24T08:54:57.302Z,2.80
2017-07-24T08:57:25.618Z,2.17
2017-07-24T08:59:53.958Z,2.90
2017-07-24T09:02:22.265Z,1.93
2017-07-24T09:04:50.598Z,2.20
2017-07-24T09:07:18.936Z,2.07
2017-07-24T09:09:47.247Z,2.00
2017-07-24T09:12:15.578Z,2.77
2017-07-24T09:14:43.910Z,2.20
2017-07-24T09:17:12.246Z,3.20
2017-07-24T09:19:40.549Z,2.27
2017-07-24T09:22:08.889Z,2.50
2017-07-24T09:24:37.228Z,2.70
2017-07-24T09:27:05.562Z,2.80
2017-07-24T09:29:33.869Z,2.70
2017-07-24T09:32:02.177Z,2.70
2017-07-24T09:34:30.518Z,3.30
2017-07-24T09:36:58.830Z,2.67
2017-07-24T09:39:27.170Z,3.27
2017-07-24T09:41:55.472Z,3.57
2017-07-24T09:44:23.799Z,3.20
2017-07-24T09:46:52.102Z,3.40
2017-07-24T09:49:21.316Z,2.50
2017-07-24T09:51:49.622Z,2.80
2017-07-24T09:54:17.953Z,2.90
2017-07-24T09:56:46.254Z,2.70
2017-07-24T09:59:14.591Z,3.33
2017-07-24T10:01:42.893Z,3.03
2017-07-24T10:04:11.198Z,2.80
2017-07-24T10:06:39.536Z,2.17
2017-07-24T10:09:07.836Z,2.80
2017-07-24T10:11:36.161Z,2.00
2017-07-24T10:14:04.465Z,2.90
2017-07-24T10:16:32.790Z,2.40
2017-07-24T10:19:01.092Z,2.80
2017-07-24T10:21:29.429Z,2.20
2017-07-24T10:23:57.737Z,2.40
2017-07-24T10:26:26.063Z,2.20
2017-07-24T10:28:54.369Z,2.60
2017-07-24T10:31:22.700Z,2.27
2017-07-24T10:33:51.000Z,1.70
2017-07-24T10:36:19.347Z,1.60
2017-07-24T10:38:47.659Z,1.10
2017-07-24T10:41:15.966Z,0.90
2017-07-24T10:43:44.302Z,1.10
2017-07-24T10:55:12.681Z,0.70
2017-07-24T10:57:41.019Z,0.70
2017-07-24T11:00:09.349Z,0.60
2017-07-24T11:02:37.745Z,0.60
2017-07-24T11:05:06.069Z,0.60
2017-07-24T11:07:34.376Z,0.67
2017-07-24T11:10:02.706Z,0.70
2017-07-24T11:12:31.016Z,0.70
2017-07-24T11:14:59.341Z,0.60
2017-07-24T11:17:27.723Z,0.60
2017-07-24T11:19:56.904Z,0.70
2017-07-24T11:22:25.209Z,0.70
2017-07-24T11:24:53.545Z,0.60
2017-07-24T11:27:21.847Z,0.70
2017-07-24T11:29:50.180Z,0.70
2017-07-24T11:32:18.488Z,0.60
2017-07-24T11:34:46.895Z,0.70
2017-07-24T11:37:15.207Z,0.70
2017-07-24T11:39:43.516Z,0.63
2017-07-24T11:42:11.855Z,0.70
2017-07-24T11:44:40.170Z,0.80
2017-07-24T11:47:08.494Z,0.80
2017-07-24T11:49:36.801Z,0.70
2017-07-24T11:52:05.129Z,0.70
2017-07-24T11:54:33.437Z,0.80
2017-07-24T11:57:01.776Z,0.67
2017-07-24T11:59:30.087Z,1.10
2017-07-24T12:01:58.415Z,0.90
2017-07-24T12:04:26.724Z,0.90
2017-07-24T12:06:55.047Z,1.00
2017-07-24T12:09:23.356Z,1.00
2017-07-24T12:11:51.691Z,0.80
2017-07-24T12:14:19.996Z,0.90
2017-07-24T12:16:48.298Z,1.00
2017-07-24T12:19:16.731Z,0.93
2017-07-24T12:21:45.034Z,0.87
2017-07-24T12:24:13.361Z,1.00
2017-07-24T12:26:41.678Z,1.20
2017-07-24T12:29:10.007Z,1.00
2017-07-24T12:31:38.321Z,0.90
2017-07-24T12:34:06.645Z,1.03
2017-07-24T12:36:34.952Z,0.90
2017-07-24T12:39:03.429Z,0.90
2017-07-24T12:41:31.758Z,0.90
2017-07-24T12:44:00.069Z,0.80
2017-07-24T12:46:28.412Z,0.97
2017-07-24T12:48:56.726Z,1.10
2017-07-24T12:51:25.056Z,0.80
2017-07-24T12:53:53.360Z,0.80
2017-07-24T12:56:21.693Z,0.80
2017-07-24T12:58:50.004Z,0.80
2017-07-24T13:01:18.336Z,1.00
2017-07-24T13:03:46.649Z,0.90
2017-07-24T13:06:14.981Z,0.80
2017-07-24T13:08:43.280Z,0.83
2017-07-24T13:11:11.611Z,0.80
2017-07-24T13:13:39.912Z,0.70
2017-07-24T13:16:08.214Z,0.70
2017-07-24T13:18:36.545Z,0.67
2017-07-24T13:21:04.845Z,1.17
2017-07-24T13:23:33.178Z,0.70
2017-07-24T13:26:01.479Z,0.60
2017-07-24T13:28:29.809Z,0.90
2017-07-24T13:30:58.112Z,0.70
2017-07-24T13:33:26.445Z,0.80
2017-07-24T13:35:54.756Z,0.90
2017-07-24T13:38:23.079Z,0.80
2017-07-24T13:40:51.382Z,0.83
2017-07-24T13:43:19.709Z,0.70
2017-07-24T13:45:48.009Z,0.80
2017-07-24T13:48:16.310Z,0.80
2017-07-24T13:50:44.636Z,0.80
2017-07-24T13:53:12.945Z,1.07
2017-07-24T13:55:41.287Z,0.90
2017-07-24T13:58:09.597Z,0.70
2017-07-24T14:00:37.936Z,0.70
2017-07-24T14:03:06.245Z,0.83
2017-07-24T14:05:34.576Z,0.70
2017-07-24T14:08:02.882Z,0.80
2017-07-24T14:10:31.218Z,0.80
2017-07-24T14:12:59.525Z,0.97
2017-07-24T14:15:27.852Z,0.87
2017-07-24T14:17:56.153Z,0.97
2017-07-24T14:20:24.457Z,0.70
2017-07-24T14:22:52.794Z,0.80
2017-07-24T14:28:20.727Z,0.90
2017-07-24T14:30:49.036Z,0.80
2017-07-24T14:33:17.360Z,0.70
2017-07-24T14:35:45.665Z,0.70
2017-07-24T14:38:14.017Z,0.97
2017-07-24T14:40:42.337Z,1.00
2017-07-24T14:43:10.719Z,0.70
2017-07-24T14:45:39.025Z,0.90
2017-07-24T14:48:07.354Z,0.80
2017-07-24T14:50:35.664Z,0.80
2017-07-24T14:53:03.990Z,0.70
2017-07-24T14:55:32.286Z,0.70
2017-07-24T14:58:00.646Z,0.90
2017-07-24T15:00:28.952Z,0.70
2017-07-24T15:02:57.268Z,0.80
2017-07-24T15:05:25.607Z,0.87
2017-07-24T15:07:53.910Z,0.80
2017-07-24T15:10:22.257Z,0.80
2017-07-24T15:12:50.765Z,0.80
2017-07-24T15:15:19.099Z,0.70
2017-07-24T15:17:47.407Z,0.73
2017-07-24T15:20:15.754Z,0.73
2017-07-24T15:22:44.060Z,0.80
2017-07-24T15:25:12.389Z,0.90
2017-07-24T15:27:40.701Z,0.80
2017-07-24T15:30:09.005Z,0.60
2017-07-24T15:32:37.336Z,0.63
2017-07-24T15:35:05.642Z,0.70
2017-07-24T15:37:33.986Z,0.60
2017-07-24T15:40:02.287Z,0.70
2017-07-24T15:42:30.616Z,0.70
2017-07-24T15:44:58.921Z,0.60
2017-07-24T15:47:27.249Z,0.80
2017-07-24T15:49:55.560Z,0.70
2017-07-24T15:52:23.912Z,0.80
2017-07-24T15:54:52.212Z,0.70
2017-07-24T15:57:20.515Z,0.80
2017-07-24T15:59:48.854Z,0.70
2017-07-24T16:02:17.169Z,0.70
2017-07-24T16:04:45.492Z,0.80
2017-07-24T16:07:13.794Z,0.70
2017-07-24T16:09:42.125Z,0.90
2017-07-24T16:12:10.430Z,0.80
2017-07-24T16:14:38.763Z,1.00
2017-07-24T16:17:07.119Z,0.77
2017-07-24T16:19:35.450Z,0.70
2017-07-24T16:22:03.758Z,1.47
2017-07-24T16:24:32.074Z,0.70
2017-07-24T16:27:00.410Z,0.70
2017-07-24T16:29:28.725Z,0.80
2017-07-24T16:31:57.055Z,0.87
2017-07-24T16:34:25.356Z,0.80
2017-07-24T16:36:53.681Z,0.77
2017-07-24T16:39:22.086Z,0.70
2017-07-24T16:41:50.408Z,0.80
2017-07-24T16:44:18.729Z,0.80
2017-07-24T16:46:47.065Z,0.83
2017-07-24T16:49:15.370Z,0.90
2017-07-24T16:51:43.671Z,0.90
2017-07-24T16:54:12.211Z,0.70
2017-07-24T16:56:40.517Z,0.70
2017-07-24T16:59:08.850Z,0.60
2017-07-24T17:01:37.158Z,0.70
2017-07-24T17:04:05.489Z,0.87
2017-07-24T17:06:33.796Z,0.90
2017-07-24T17:09:02.130Z,0.70
2017-07-24T17:11:30.456Z,0.67
2017-07-24T17:13:58.777Z,0.73
2017-07-24T17:16:27.093Z,0.90
2017-07-24T17:18:55.421Z,0.80
2017-07-24T17:21:23.729Z,0.90
2017-07-24T17:23:52.073Z,0.90
2017-07-24T17:26:20.380Z,0.80
2017-07-24T17:28:48.708Z,0.80
2017-07-24T17:31:17.026Z,0.80
2017-07-24T17:33:45.327Z,0.60
2017-07-24T17:36:13.657Z,0.80
2017-07-24T17:38:41.964Z,0.80
2017-07-24T17:41:10.295Z,1.00
2017-07-24T17:43:38.600Z,0.70
2017-07-24T17:46:06.928Z,0.80
2017-07-24T17:48:35.237Z,0.70
2017-07-24T17:51:03.568Z,0.80
2017-07-24T17:53:31.882Z,0.70
2017-07-24T17:56:00.265Z,0.80
2017-07-24T17:58:28.592Z,0.70
2017-07-24T18:00:56.898Z,0.70
2017-07-24T18:03:25.230Z,0.80
2017-07-24T18:05:53.550Z,0.80
2017-07-24T18:08:21.877Z,1.00
2017-07-24T18:10:50.183Z,0.73
2017-07-24T18:13:18.521Z,0.83
2017-07-24T18:15:46.846Z,0.90
2017-07-24T18:18:15.173Z,0.70
2017-07-24T18:20:43.476Z,0.90
2017-07-24T18:23:11.806Z,0.80
2017-07-24T18:25:40.112Z,0.90
2017-07-24T18:28:08.607Z,0.80
2017-07-24T18:30:36.917Z,0.90
2017-07-24T18:33:05.235Z,1.40
2017-07-24T18:35:33.570Z,0.80
2017-07-24T18:38:01.876Z,0.83
2017-07-24T18:40:30.210Z,1.07
2017-07-24T18:42:58.509Z,0.80
2017-07-24T18:45:26.838Z,0.90
2017-07-24T18:47:55.144Z,0.83
2017-07-24T18:50:23.471Z,1.00
2017-07-24T18:52:51.774Z,1.20
2017-07-24T18:55:20.105Z,0.90
2017-07-24T18:57:48.437Z,1.10
2017-07-24T19:00:16.772Z,1.20
2017-07-24T19:02:45.098Z,1.10
2017-07-24T19:05:13.449Z,1.00
2017-07-24T19:07:41.760Z,1.30
2017-07-24T19:10:10.062Z,0.90
2017-07-24T19:12:38.389Z,1.10
2017-07-24T19:15:06.710Z,0.90
2017-07-24T19:17:35.037Z,1.00
2017-07-24T19:20:03.361Z,1.20
2017-07-24T19:22:31.680Z,1.30
2017-07-24T19:24:59.992Z,1.17
2017-07-24T19:27:28.327Z,0.87
2017-07-24T19:29:56.630Z,1.00
2017-07-24T19:32:24.982Z,0.90
2017-07-24T19:34:53.288Z,0.90
2017-07-24T19:37:22.301Z,0.93
2017-07-24T19:39:50.639Z,0.90
2017-07-24T19:42:18.966Z,1.00
2017-07-24T19:44:47.292Z,0.90
2017-07-24T19:47:15.609Z,1.00
2017-07-24T19:49:44.033Z,1.10
2017-07-24T19:52:12.342Z,1.07
2017-07-24T19:54:40.670Z,1.20
2017-07-24T19:57:08.974Z,0.90
2017-07-24T19:59:37.308Z,1.00
2017-07-24T20:02:05.612Z,1.00
2017-07-24T20:04:33.940Z,1.17
2017-07-24T20:07:02.241Z,1.10
2017-07-24T20:09:30.574Z,1.00
2017-07-24T20:11:58.897Z,0.87
2017-07-24T20:14:27.210Z,1.10
2017-07-24T20:16:55.544Z,1.20
2017-07-24T20:19:23.901Z,1.10
2017-07-24T20:21:54.159Z,0.97
2017-07-24T20:24:23.441Z,1.10
2017-07-24T20:26:51.769Z,1.30
2017-07-24T20:29:20.086Z,1.67
2017-07-24T20:31:48.420Z,1.10
2017-07-24T20:34:16.725Z,1.03
2017-07-24T20:36:45.058Z,1.00
2017-07-24T20:39:13.371Z,0.97
2017-07-24T20:41:41.669Z,1.00
2017-07-24T20:44:10.002Z,1.03
2017-07-24T20:46:38.328Z,1.30
2017-07-24T20:49:06.700Z,0.90
2017-07-24T20:51:35.011Z,0.90
2017-07-24T20:54:03.352Z,0.90
2017-07-24T20:56:31.659Z,1.20
2017-07-24T20:58:59.998Z,1.10
2017-07-24T21:01:28.296Z,1.07
2017-07-24T21:03:56.649Z,1.43
2017-07-24T21:06:25.001Z,1.43
2017-07-24T21:08:53.340Z,1.20
2017-07-24T21:11:21.650Z,1.10
2017-07-24T21:13:49.966Z,0.97
2017-07-24T21:16:18.305Z,1.20
2017-07-24T21:18:46.612Z,1.00
2017-07-24T21:21:14.951Z,1.20
2017-07-24T21:23:43.266Z,1.20
2017-07-24T21:26:11.598Z,1.00
2017-07-24T21:28:39.904Z,1.30
2017-07-24T21:31:08.240Z,1.23
2017-07-24T21:33:36.654Z,1.30
2017-07-24T21:36:05.002Z,1.37
2017-07-24T21:38:33.316Z,1.40
2017-07-24T21:41:01.662Z,1.50
2017-07-24T21:43:29.969Z,1.83
2017-07-24T21:45:58.270Z,1.40
2017-07-24T21:48:26.611Z,1.80
2017-07-24T21:50:54.928Z,1.40
2017-07-24T21:53:23.266Z,1.40
2017-07-24T21:55:51.582Z,1.40
2017-07-24T21:58:19.905Z,1.47
2017-07-24T22:00:48.206Z,1.40
2017-07-24T22:03:16.537Z,1.27
2017-07-24T22:05:44.848Z,1.30
2017-07-24T22:08:13.185Z,1.20
2017-07-24T22:10:41.489Z,1.13
2017-07-24T22:13:09.813Z,1.57
2017-07-24T22:15:38.114Z,1.77
2017-07-24T22:18:06.441Z,1.67
2017-07-24T22:20:34.767Z,1.77
2017-07-24T22:23:03.074Z,1.47
2017-07-24T22:25:31.408Z,1.67
2017-07-24T22:27:59.716Z,1.63
2017-07-24T22:30:28.050Z,1.53
2017-07-24T22:32:56.350Z,1.30
2017-07-24T22:35:24.706Z,1.40
2017-07-24T22:37:53.013Z,1.47
2017-07-24T22:40:21.370Z,1.83
2017-07-24T22:42:49.672Z,1.60
2017-07-24T22:45:17.999Z,1.80
2017-07-24T22:47:46.293Z,1.70
2017-07-24T22:50:14.625Z,1.43
2017-07-24T22:52:42.943Z,1.70
2017-07-24T22:55:11.270Z,1.70
2017-07-24T22:57:39.571Z,1.80
2017-07-24T23:00:07.872Z,2.13
2017-07-24T23:02:36.205Z,1.70
2017-07-24T23:05:04.516Z,1.73
2017-07-24T23:07:32.832Z,1.67
2017-07-24T23:10:01.141Z,1.63
2017-07-24T23:12:29.482Z,1.90
2017-07-24T23:14:57.794Z,1.60
2017-07-24T23:17:26.127Z,1.60
2017-07-24T23:19:54.430Z,1.73
2017-07-24T23:22:22.774Z,2.23
2017-07-24T23:24:51.096Z,1.63
2017-07-24T23:27:19.430Z,1.87
2017-07-24T23:29:47.736Z,2.17
2017-07-24T23:32:16.036Z,1.90
2017-07-24T23:34:44.371Z,2.43
2017-07-24T23:37:12.687Z,1.83
2017-07-24T23:39:41.012Z,1.90
2017-07-24T23:42:09.329Z,1.67
2017-07-24T23:44:37.665Z,1.63
2017-07-24T23:47:05.975Z,2.13
2017-07-24T23:49:34.349Z,2.07
2017-07-24T23:52:02.652Z,1.90
2017-07-24T23:54:30.977Z,2.37
2017-07-24T23:56:59.276Z,1.80
2017-07-24T23:59:27.657Z,2.03
